sensor_id;sensor_type;location;lat;lon;timestamp;pressure;altitude;pressure_sealevel;temperature;humidity
21960;BME280;11144;43.030;25.108;2023-01-19T00:00:44;98060.59;;;16.51;100.00
21960;BME280;11144;43.030;25.108;2023-01-19T00:02:17;98076.97;;;16.47;100.00
21960;BME280;11144;43.030;25.108;2023-01-19T00:03:50;98078.69;;;16.48;100.00
21960;BME280;11144;43.030;25.108;2023-01-19T00:05:23;98077.59;;;16.50;100.00
21960;BME280;11144;43.030;25.108;2023-01-19T00:06:57;98078.69;;;16.48;100.00
21960;BME280;11144;43.030;25.108;2023-01-19T00:08:32;98060.97;;;16.47;100.00
21960;BME280;11144;43.030;25.108;2023-01-19T00:10:07;98062.91;;;16.45;100.00
21960;BME280;11144;43.030;25.108;2023-01-19T00:11:40;98057.81;;;16.42;100.00
21960;BME280;11144;43.030;25.108;2023-01-19T00:13:15;98062.19;;;16.43;100.00
21960;BME280;11144;43.030;25.108;2023-01-19T00:14:48;98076.50;;;16.42;100.00
21960;BME280;11144;43.030;25.108;2023-01-19T00:16:21;98072.34;;;16.38;100.00
21960;BME280;11144;43.030;25.108;2023-01-19T00:17:54;98074.28;;;16.36;100.00
21960;BME280;11144;43.030;25.108;2023-01-19T00:19:28;98079.75;;;16.34;100.00
21960;BME280;11144;43.030;25.108;2023-01-19T00:21:01;98068.94;;;16.36;100.00
21960;BME280;11144;43.030;25.108;2023-01-19T00:22:34;98072.47;;;16.36;100.00
21960;BME280;11144;43.030;25.108;2023-01-19T00:24:09;98076.81;;;16.37;100.00
21960;BME280;11144;43.030;25.108;2023-01-19T00:25:42;98077.44;;;16.41;100.00
21960;BME280;11144;43.030;25.108;2023-01-19T00:27:15;98070.91;;;16.45;100.00
21960;BME280;11144;43.030;25.108;2023-01-19T00:28:50;98080.16;;;16.52;100.00
21960;BME280;11144;43.030;25.108;2023-01-19T00:30:23;98075.28;;;16.57;100.00
21960;BME280;11144;43.030;25.108;2023-01-19T00:31:56;98095.66;;;16.58;100.00
21960;BME280;11144;43.030;25.108;2023-01-19T00:33:29;98094.81;;;16.57;100.00
21960;BME280;11144;43.030;25.108;2023-01-19T00:35:02;98092.16;;;16.57;100.00
21960;BME280;11144;43.030;25.108;2023-01-19T00:36:36;98092.97;;;16.58;100.00
21960;BME280;11144;43.030;25.108;2023-01-19T00:38:10;98092.28;;;16.56;100.00
21960;BME280;11144;43.030;25.108;2023-01-19T00:39:43;98091.28;;;16.57;100.00
21960;BME280;11144;43.030;25.108;2023-01-19T00:41:17;98102.19;;;16.54;100.00
21960;BME280;11144;43.030;25.108;2023-01-19T00:42:49;98097.84;;;16.53;100.00
21960;BME280;11144;43.030;25.108;2023-01-19T00:44:24;98078.69;;;16.48;100.00
21960;BME280;11144;43.030;25.108;2023-01-19T00:45:56;98090.19;;;16.48;100.00
21960;BME280;11144;43.030;25.108;2023-01-19T00:47:29;98086.69;;;16.48;100.00
21960;BME280;11144;43.030;25.108;2023-01-19T00:49:03;98092.97;;;16.47;100.00
21960;BME280;11144;43.030;25.108;2023-01-19T00:50:37;98099.41;;;16.44;100.00
21960;BME280;11144;43.030;25.108;2023-01-19T00:52:10;98095.19;;;16.42;100.00
21960;BME280;11144;43.030;25.108;2023-01-19T00:53:43;98098.78;;;16.41;100.00
21960;BME280;11144;43.030;25.108;2023-01-19T00:55:16;98098.16;;;16.37;100.00
21960;BME280;11144;43.030;25.108;2023-01-19T00:56:49;98098.44;;;16.34;100.00
21960;BME280;11144;43.030;25.108;2023-01-19T00:58:23;98106.56;;;16.33;100.00
21960;BME280;11144;43.030;25.108;2023-01-19T00:59:57;98102.91;;;16.34;100.00
21960;BME280;11144;43.030;25.108;2023-01-19T01:01:30;98085.22;;;16.33;100.00
21960;BME280;11144;43.030;25.108;2023-01-19T01:03:17;98108.25;;;16.34;100.00
21960;BME280;11144;43.030;25.108;2023-01-19T01:04:50;98102.16;;;16.32;100.00
21960;BME280;11144;43.030;25.108;2023-01-19T01:06:25;98103.13;;;16.31;100.00
21960;BME280;11144;43.030;25.108;2023-01-19T01:07:57;98118.81;;;16.35;100.00
21960;BME280;11144;43.030;25.108;2023-01-19T01:09:31;98115.50;;;16.32;100.00
21960;BME280;11144;43.030;25.108;2023-01-19T01:11:04;98111.63;;;16.36;100.00
21960;BME280;11144;43.030;25.108;2023-01-19T01:12:38;98109.69;;;16.38;100.00
21960;BME280;11144;43.030;25.108;2023-01-19T01:14:27;98108.84;;;16.37;100.00
21960;BME280;11144;43.030;25.108;2023-01-19T01:16:02;98113.59;;;16.34;100.00
21960;BME280;11144;43.030;25.108;2023-01-19T01:17:36;98118.28;;;16.30;100.00
21960;BME280;11144;43.030;25.108;2023-01-19T01:19:18;98105.09;;;16.29;100.00
21960;BME280;11144;43.030;25.108;2023-01-19T01:20:52;98116.00;;;16.26;100.00
21960;BME280;11144;43.030;25.108;2023-01-19T01:22:27;98112.34;;;16.27;100.00
21960;BME280;11144;43.030;25.108;2023-01-19T01:23:59;98112.59;;;16.24;100.00
21960;BME280;11144;43.030;25.108;2023-01-19T01:25:32;98101.91;;;16.24;100.00
21960;BME280;11144;43.030;25.108;2023-01-19T01:27:08;98105.81;;;16.20;100.00
21960;BME280;11144;43.030;25.108;2023-01-19T01:28:42;98111.38;;;16.17;100.00
21960;BME280;11144;43.030;25.108;2023-01-19T01:30:16;98113.91;;;16.18;100.00
21960;BME280;11144;43.030;25.108;2023-01-19T01:31:50;98099.00;;;16.16;100.00
21960;BME280;11144;43.030;25.108;2023-01-19T01:33:24;98103.59;;;16.14;100.00
21960;BME280;11144;43.030;25.108;2023-01-19T01:35:12;98125.09;;;16.12;100.00
21960;BME280;11144;43.030;25.108;2023-01-19T01:36:45;98121.78;;;16.09;100.00
21960;BME280;11144;43.030;25.108;2023-01-19T01:38:18;98119.88;;;16.11;100.00
21960;BME280;11144;43.030;25.108;2023-01-19T01:39:51;98111.00;;;16.10;100.00
21960;BME280;11144;43.030;25.108;2023-01-19T01:41:24;98128.81;;;16.10;100.00
21960;BME280;11144;43.030;25.108;2023-01-19T01:42:58;98129.06;;;16.07;100.00
21960;BME280;11144;43.030;25.108;2023-01-19T01:44:47;98129.38;;;15.91;100.00
21960;BME280;11144;43.030;25.108;2023-01-19T01:46:21;98134.09;;;15.88;100.00
21960;BME280;11144;43.030;25.108;2023-01-19T01:47:57;98130.53;;;15.65;100.00
21960;BME280;11144;43.030;25.108;2023-01-19T01:49:32;98122.72;;;15.51;100.00
21960;BME280;11144;43.030;25.108;2023-01-19T01:51:08;98124.16;;;15.32;100.00
21960;BME280;11144;43.030;25.108;2023-01-19T01:53:00;98120.72;;;15.19;100.00
21960;BME280;11144;43.030;25.108;2023-01-19T01:54:38;98124.78;;;15.12;100.00
21960;BME280;11144;43.030;25.108;2023-01-19T01:56:16;98124.50;;;15.04;100.00
21960;BME280;11144;43.030;25.108;2023-01-19T01:57:54;98116.19;;;14.96;100.00
21960;BME280;11144;43.030;25.108;2023-01-19T01:59:30;98111.88;;;14.82;100.00
21960;BME280;11144;43.030;25.108;2023-01-19T02:01:06;98127.44;;;14.76;100.00
21960;BME280;11144;43.030;25.108;2023-01-19T02:03:01;98118.31;;;14.67;100.00
21960;BME280;11144;43.030;25.108;2023-01-19T02:04:36;98117.03;;;14.60;100.00
21960;BME280;11144;43.030;25.108;2023-01-19T02:06:09;98114.94;;;14.53;100.00
21960;BME280;11144;43.030;25.108;2023-01-19T02:07:46;98119.41;;;14.40;100.00
21960;BME280;11144;43.030;25.108;2023-01-19T02:09:38;98122.44;;;14.35;100.00
21960;BME280;11144;43.030;25.108;2023-01-19T02:11:29;98125.41;;;14.31;100.00
21960;BME280;11144;43.030;25.108;2023-01-19T02:13:21;98124.84;;;14.26;100.00
21960;BME280;11144;43.030;25.108;2023-01-19T02:14:56;98119.09;;;14.19;100.00
21960;BME280;11144;43.030;25.108;2023-01-19T02:16:29;98115.34;;;14.09;100.00
21960;BME280;11144;43.030;25.108;2023-01-19T02:18:04;98125.56;;;14.15;100.00
21960;BME280;11144;43.030;25.108;2023-01-19T02:19:40;98128.38;;;14.26;100.00
21960;BME280;11144;43.030;25.108;2023-01-19T02:21:17;98129.44;;;14.36;100.00
21960;BME280;11144;43.030;25.108;2023-01-19T02:22:51;98117.22;;;14.34;100.00
21960;BME280;11144;43.030;25.108;2023-01-19T02:24:27;98129.34;;;14.38;100.00
21960;BME280;11144;43.030;25.108;2023-01-19T02:26:01;98137.72;;;14.32;100.00
21960;BME280;11144;43.030;25.108;2023-01-19T02:27:35;98134.94;;;14.21;100.00
21960;BME280;11144;43.030;25.108;2023-01-19T02:29:10;98127.25;;;14.04;100.00
21960;BME280;11144;43.030;25.108;2023-01-19T02:30:44;98132.59;;;13.91;100.00
21960;BME280;11144;43.030;25.108;2023-01-19T02:32:17;98118.75;;;13.73;100.00
21960;BME280;11144;43.030;25.108;2023-01-19T02:33:51;98133.19;;;13.69;100.00
21960;BME280;11144;43.030;25.108;2023-01-19T02:35:25;98133.81;;;13.60;100.00
21960;BME280;11144;43.030;25.108;2023-01-19T02:37:01;98133.25;;;13.55;100.00
21960;BME280;11144;43.030;25.108;2023-01-19T02:38:37;98120.69;;;13.45;100.00
21960;BME280;11144;43.030;25.108;2023-01-19T02:40:16;98124.19;;;13.33;100.00
21960;BME280;11144;43.030;25.108;2023-01-19T02:41:54;98134.13;;;13.29;100.00
21960;BME280;11144;43.030;25.108;2023-01-19T02:43:30;98132.63;;;13.25;100.00
21960;BME280;11144;43.030;25.108;2023-01-19T02:45:05;98114.66;;;13.16;100.00
21960;BME280;11144;43.030;25.108;2023-01-19T02:46:40;98118.06;;;13.18;100.00
21960;BME280;11144;43.030;25.108;2023-01-19T02:48:13;98115.41;;;13.18;100.00
21960;BME280;11144;43.030;25.108;2023-01-19T02:49:54;98133.25;;;13.16;100.00
21960;BME280;11144;43.030;25.108;2023-01-19T02:51:27;98133.25;;;13.16;100.00
21960;BME280;11144;43.030;25.108;2023-01-19T02:53:08;98132.47;;;13.14;100.00
21960;BME280;11144;43.030;25.108;2023-01-19T02:54:51;98132.59;;;13.13;100.00
21960;BME280;11144;43.030;25.108;2023-01-19T02:56:38;98137.25;;;13.09;100.00
21960;BME280;11144;43.030;25.108;2023-01-19T02:58:17;98130.84;;;12.99;100.00
21960;BME280;11144;43.030;25.108;2023-01-19T03:00:04;98141.59;;;12.96;100.00
21960;BME280;11144;43.030;25.108;2023-01-19T03:03:42;98143.38;;;12.69;100.00
21960;BME280;11144;43.030;25.108;2023-01-19T03:05:26;98129.75;;;12.33;100.00
21960;BME280;11144;43.030;25.108;2023-01-19T03:07:06;98140.19;;;12.22;100.00
21960;BME280;11144;43.030;25.108;2023-01-19T03:08:48;98136.94;;;12.03;100.00
21960;BME280;11144;43.030;25.108;2023-01-19T03:10:30;98138.25;;;11.96;100.00
21960;BME280;11144;43.030;25.108;2023-01-19T03:12:11;98144.22;;;11.86;100.00
21960;BME280;11144;43.030;25.108;2023-01-19T03:13:50;98138.44;;;11.79;100.00
21960;BME280;11144;43.030;25.108;2023-01-19T03:15:27;98147.72;;;11.86;100.00
21960;BME280;11144;43.030;25.108;2023-01-19T03:17:05;98141.66;;;11.84;100.00
21960;BME280;11144;43.030;25.108;2023-01-19T03:18:44;98146.09;;;11.84;100.00
21960;BME280;11144;43.030;25.108;2023-01-19T03:20:22;98144.75;;;11.77;100.00
21960;BME280;11144;43.030;25.108;2023-01-19T03:22:02;98129.91;;;11.74;100.00
21960;BME280;11144;43.030;25.108;2023-01-19T03:23:37;98128.13;;;11.75;100.00
21960;BME280;11144;43.030;25.108;2023-01-19T03:25:12;98127.03;;;11.63;100.00
21960;BME280;11144;43.030;25.108;2023-01-19T03:26:52;98128.53;;;11.53;100.00
21960;BME280;11144;43.030;25.108;2023-01-19T03:28:31;98140.97;;;11.51;100.00
21960;BME280;11144;43.030;25.108;2023-01-19T03:30:06;98133.22;;;11.48;100.00
21960;BME280;11144;43.030;25.108;2023-01-19T03:31:42;98130.66;;;11.47;100.00
21960;BME280;11144;43.030;25.108;2023-01-19T03:33:20;98124.34;;;11.49;100.00
21960;BME280;11144;43.030;25.108;2023-01-19T03:34:58;98126.88;;;11.51;100.00
21960;BME280;11144;43.030;25.108;2023-01-19T03:36:36;98140.56;;;11.43;100.00
21960;BME280;11144;43.030;25.108;2023-01-19T03:38:17;98123.19;;;11.39;100.00
21960;BME280;11144;43.030;25.108;2023-01-19T03:39:54;98123.19;;;11.39;100.00
21960;BME280;11144;43.030;25.108;2023-01-19T03:41:28;98131.19;;;11.38;100.00
21960;BME280;11144;43.030;25.108;2023-01-19T03:43:03;98122.56;;;11.34;100.00
21960;BME280;11144;43.030;25.108;2023-01-19T03:44:38;98131.47;;;11.33;100.00
21960;BME280;11144;43.030;25.108;2023-01-19T03:46:14;98130.72;;;11.31;100.00
21960;BME280;11144;43.030;25.108;2023-01-19T03:47:49;98127.19;;;11.31;100.00
21960;BME280;11144;43.030;25.108;2023-01-19T03:49:23;98134.47;;;11.27;100.00
21960;BME280;11144;43.030;25.108;2023-01-19T03:50:57;98135.47;;;11.25;100.00
21960;BME280;11144;43.030;25.108;2023-01-19T03:52:31;98146.94;;;11.25;100.00
21960;BME280;11144;43.030;25.108;2023-01-19T03:54:05;98148.81;;;11.23;100.00
21960;BME280;11144;43.030;25.108;2023-01-19T03:55:41;98143.50;;;11.23;100.00
21960;BME280;11144;43.030;25.108;2023-01-19T03:57:13;98139.94;;;11.24;100.00
21960;BME280;11144;43.030;25.108;2023-01-19T03:58:47;98136.34;;;11.25;100.00
21960;BME280;11144;43.030;25.108;2023-01-19T04:00:20;98151.34;;;11.25;100.00
21960;BME280;11144;43.030;25.108;2023-01-19T04:01:54;98152.41;;;11.22;100.00
21960;BME280;11144;43.030;25.108;2023-01-19T04:03:27;98149.00;;;11.20;100.00
21960;BME280;11144;43.030;25.108;2023-01-19T04:04:59;98136.91;;;11.16;100.00
21960;BME280;11144;43.030;25.108;2023-01-19T04:06:32;98140.81;;;11.09;100.00
21960;BME280;11144;43.030;25.108;2023-01-19T04:08:06;98128.72;;;11.05;100.00
21960;BME280;11144;43.030;25.108;2023-01-19T04:09:38;98137.56;;;11.04;100.00
21960;BME280;11144;43.030;25.108;2023-01-19T04:11:11;98144.75;;;11.02;100.00
21960;BME280;11144;43.030;25.108;2023-01-19T04:12:45;98139.63;;;10.99;100.00
21960;BME280;11144;43.030;25.108;2023-01-19T04:14:21;98150.53;;;10.93;100.00
21960;BME280;11144;43.030;25.108;2023-01-19T04:15:58;98138.28;;;10.92;100.00
21960;BME280;11144;43.030;25.108;2023-01-19T04:17:32;98144.59;;;10.90;100.00
21960;BME280;11144;43.030;25.108;2023-01-19T04:19:05;98141.34;;;10.85;100.00
21960;BME280;11144;43.030;25.108;2023-01-19T04:20:38;98144.59;;;10.74;100.00
21960;BME280;11144;43.030;25.108;2023-01-19T04:22:11;98155.69;;;10.65;100.00
21960;BME280;11144;43.030;25.108;2023-01-19T04:23:45;98157.63;;;10.62;100.00
21960;BME280;11144;43.030;25.108;2023-01-19T04:25:18;98143.91;;;10.55;100.00
21960;BME280;11144;43.030;25.108;2023-01-19T04:26:51;98141.50;;;10.51;100.00
21960;BME280;11144;43.030;25.108;2023-01-19T04:28:25;98139.13;;;10.46;100.00
21960;BME280;11144;43.030;25.108;2023-01-19T04:29:59;98142.69;;;10.45;100.00
21960;BME280;11144;43.030;25.108;2023-01-19T04:31:34;98148.13;;;10.42;100.00
21960;BME280;11144;43.030;25.108;2023-01-19T04:33:07;98141.31;;;10.38;100.00
21960;BME280;11144;43.030;25.108;2023-01-19T04:34:40;98154.94;;;10.30;100.00
21960;BME280;11144;43.030;25.108;2023-01-19T04:36:13;98155.41;;;10.21;100.00
21960;BME280;11144;43.030;25.108;2023-01-19T04:37:45;98165.47;;;10.15;100.00
21960;BME280;11144;43.030;25.108;2023-01-19T04:39:19;98175.44;;;10.10;100.00
21960;BME280;11144;43.030;25.108;2023-01-19T04:40:53;98174.63;;;10.08;100.00
21960;BME280;11144;43.030;25.108;2023-01-19T04:42:26;98156.94;;;10.10;100.00
21960;BME280;11144;43.030;25.108;2023-01-19T04:43:59;98156.38;;;10.03;100.00
21960;BME280;11144;43.030;25.108;2023-01-19T04:45:32;98169.81;;;9.99;100.00
21960;BME280;11144;43.030;25.108;2023-01-19T04:47:08;98168.44;;;9.92;100.00
21960;BME280;11144;43.030;25.108;2023-01-19T04:48:42;98172.16;;;9.88;100.00
21960;BME280;11144;43.030;25.108;2023-01-19T04:50:15;98181.63;;;9.92;100.00
21960;BME280;11144;43.030;25.108;2023-01-19T04:51:48;98187.66;;;9.94;100.00
21960;BME280;11144;43.030;25.108;2023-01-19T04:53:24;98179.00;;;9.92;100.00
21960;BME280;11144;43.030;25.108;2023-01-19T04:54:57;98180.84;;;9.90;100.00
21960;BME280;11144;43.030;25.108;2023-01-19T04:56:31;98186.13;;;9.90;100.00
21960;BME280;11144;43.030;25.108;2023-01-19T04:58:04;98186.13;;;9.90;100.00
21960;BME280;11144;43.030;25.108;2023-01-19T04:59:36;98176.50;;;9.89;100.00
21960;BME280;11144;43.030;25.108;2023-01-19T05:01:10;98173.84;;;9.89;100.00
21960;BME280;11144;43.030;25.108;2023-01-19T05:02:44;98180.31;;;9.83;100.00
21960;BME280;11144;43.030;25.108;2023-01-19T05:04:17;98182.34;;;9.78;100.00
21960;BME280;11144;43.030;25.108;2023-01-19T05:05:53;98185.06;;;9.77;100.00
21960;BME280;11144;43.030;25.108;2023-01-19T05:07:26;98186.22;;;9.71;100.00
21960;BME280;11144;43.030;25.108;2023-01-19T05:08:59;98175.13;;;9.65;100.00
21960;BME280;11144;43.030;25.108;2023-01-19T05:10:32;98179.31;;;9.52;100.00
21960;BME280;11144;43.030;25.108;2023-01-19T05:12:05;98180.22;;;9.34;100.00
21960;BME280;11144;43.030;25.108;2023-01-19T05:13:39;98189.50;;;9.24;100.00
21960;BME280;11144;43.030;25.108;2023-01-19T05:15:12;98181.38;;;9.28;100.00
21960;BME280;11144;43.030;25.108;2023-01-19T05:16:45;98174.25;;;9.30;100.00
21960;BME280;11144;43.030;25.108;2023-01-19T05:18:19;98170.75;;;9.30;100.00
21960;BME280;11144;43.030;25.108;2023-01-19T05:19:52;98181.91;;;9.35;100.00
21960;BME280;11144;43.030;25.108;2023-01-19T05:21:25;98192.63;;;9.32;100.00
21960;BME280;11144;43.030;25.108;2023-01-19T05:22:59;98185.41;;;9.35;100.00
21960;BME280;11144;43.030;25.108;2023-01-19T05:24:33;98179.91;;;9.40;100.00
21960;BME280;11144;43.030;25.108;2023-01-19T05:26:06;98184.88;;;9.46;100.00
21960;BME280;11144;43.030;25.108;2023-01-19T05:27:41;98175.13;;;9.48;100.00
21960;BME280;11144;43.030;25.108;2023-01-19T05:29:14;98190.16;;;9.46;100.00
21960;BME280;11144;43.030;25.108;2023-01-19T05:30:48;98193.59;;;9.48;100.00
21960;BME280;11144;43.030;25.108;2023-01-19T05:32:21;98191.88;;;9.47;100.00
21960;BME280;11144;43.030;25.108;2023-01-19T05:33:56;98197.31;;;9.44;100.00
21960;BME280;11144;43.030;25.108;2023-01-19T05:35:29;98196.69;;;9.39;100.00
21960;BME280;11144;43.030;25.108;2023-01-19T05:37:07;98188.91;;;9.36;100.00
21960;BME280;11144;43.030;25.108;2023-01-19T05:38:40;98180.06;;;9.37;100.00
21960;BME280;11144;43.030;25.108;2023-01-19T05:40:14;98190.75;;;9.34;100.00
21960;BME280;11144;43.030;25.108;2023-01-19T05:41:47;98198.75;;;9.32;100.00
21960;BME280;11144;43.030;25.108;2023-01-19T05:43:20;98199.47;;;9.36;100.00
21960;BME280;11144;43.030;25.108;2023-01-19T05:44:56;98200.94;;;9.41;100.00
21960;BME280;11144;43.030;25.108;2023-01-19T05:46:30;98208.16;;;9.38;100.00
21960;BME280;11144;43.030;25.108;2023-01-19T05:48:03;98203.19;;;9.32;100.00
21960;BME280;11144;43.030;25.108;2023-01-19T05:49:38;98209.75;;;9.23;100.00
21960;BME280;11144;43.030;25.108;2023-01-19T05:51:12;98202.44;;;9.11;100.00
21960;BME280;11144;43.030;25.108;2023-01-19T05:52:46;98195.38;;;9.12;100.00
21960;BME280;11144;43.030;25.108;2023-01-19T05:54:19;98201.59;;;9.11;100.00
21960;BME280;11144;43.030;25.108;2023-01-19T05:55:52;98197.06;;;9.13;100.00
21960;BME280;11144;43.030;25.108;2023-01-19T05:57:26;98198.88;;;9.12;100.00
21960;BME280;11144;43.030;25.108;2023-01-19T05:58:59;98209.56;;;9.09;100.00
21960;BME280;11144;43.030;25.108;2023-01-19T06:00:32;98205.38;;;9.05;100.00
21960;BME280;11144;43.030;25.108;2023-01-19T06:02:06;98219.06;;;8.95;100.00
21960;BME280;11144;43.030;25.108;2023-01-19T06:03:39;98218.91;;;8.98;100.00
21960;BME280;11144;43.030;25.108;2023-01-19T06:05:14;98215.34;;;8.99;100.00
21960;BME280;11144;43.030;25.108;2023-01-19T06:06:48;98219.75;;;8.98;100.00
21960;BME280;11144;43.030;25.108;2023-01-19T06:08:21;98213.00;;;8.93;100.00
21960;BME280;11144;43.030;25.108;2023-01-19T06:09:55;98201.84;;;8.88;100.00
21960;BME280;11144;43.030;25.108;2023-01-19T06:11:28;98207.53;;;8.79;100.00
21960;BME280;11144;43.030;25.108;2023-01-19T06:13:01;98223.41;;;8.77;100.00
21960;BME280;11144;43.030;25.108;2023-01-19T06:14:34;98224.19;;;8.79;100.00
21960;BME280;11144;43.030;25.108;2023-01-19T06:16:09;98224.91;;;8.83;100.00
21960;BME280;11144;43.030;25.108;2023-01-19T06:17:42;98227.25;;;8.89;100.00
21960;BME280;11144;43.030;25.108;2023-01-19T06:19:15;98229.88;;;8.89;100.00
21960;BME280;11144;43.030;25.108;2023-01-19T06:20:50;98212.06;;;8.94;100.00
21960;BME280;11144;43.030;25.108;2023-01-19T06:22:29;98224.34;;;8.95;100.00
21960;BME280;11144;43.030;25.108;2023-01-19T06:24:02;98215.34;;;8.99;100.00
21960;BME280;11144;43.030;25.108;2023-01-19T06:25:36;98219.75;;;8.98;100.00
21960;BME280;11144;43.030;25.108;2023-01-19T06:27:09;98213.81;;;8.95;100.00
21960;BME280;11144;43.030;25.108;2023-01-19T06:28:42;98231.59;;;8.90;100.00
21960;BME280;11144;43.030;25.108;2023-01-19T06:30:16;98227.88;;;8.94;100.00
21960;BME280;11144;43.030;25.108;2023-01-19T06:31:50;98235.66;;;8.97;100.00
21960;BME280;11144;43.030;25.108;2023-01-19T06:33:24;98217.19;;;8.97;100.00
21960;BME280;11144;43.030;25.108;2023-01-19T06:34:58;98215.78;;;8.90;100.00
21960;BME280;11144;43.030;25.108;2023-01-19T06:36:33;98210.50;;;8.90;100.00
21960;BME280;11144;43.030;25.108;2023-01-19T06:38:06;98214.06;;;8.89;100.00
21960;BME280;11144;43.030;25.108;2023-01-19T06:39:39;98204.81;;;8.99;100.00
21960;BME280;11144;43.030;25.108;2023-01-19T06:41:13;98194.09;;;9.02;100.00
21960;BME280;11144;43.030;25.108;2023-01-19T06:42:47;98182.66;;;9.20;100.00
21960;BME280;11144;43.030;25.108;2023-01-19T06:44:20;98189.75;;;9.36;100.00
21960;BME280;11144;43.030;25.108;2023-01-19T06:45:54;98190.34;;;9.77;100.00
21960;BME280;11144;43.030;25.108;2023-01-19T06:47:28;98187.97;;;10.22;100.00
21960;BME280;11144;43.030;25.108;2023-01-19T06:49:01;98210.03;;;10.54;100.00
21960;BME280;11144;43.030;25.108;2023-01-19T06:50:34;98197.63;;;10.56;100.00
21960;BME280;11144;43.030;25.108;2023-01-19T06:52:09;98208.19;;;10.56;100.00
21960;BME280;11144;43.030;25.108;2023-01-19T06:53:44;98207.00;;;10.61;100.00
21960;BME280;11144;43.030;25.108;2023-01-19T06:55:18;98209.66;;;10.77;100.00
21960;BME280;11144;43.030;25.108;2023-01-19T06:56:54;98210.44;;;10.94;100.00
21960;BME280;11144;43.030;25.108;2023-01-19T06:58:27;98211.22;;;11.12;100.00
21960;BME280;11144;43.030;25.108;2023-01-19T07:00:01;98211.47;;;11.23;100.00
21960;BME280;11144;43.030;25.108;2023-01-19T07:01:38;98201.38;;;11.29;100.00
21960;BME280;11144;43.030;25.108;2023-01-19T07:03:18;98202.75;;;11.36;100.00
21960;BME280;11144;43.030;25.108;2023-01-19T07:04:51;98210.34;;;11.42;100.00
21960;BME280;11144;43.030;25.108;2023-01-19T07:06:25;98206.41;;;11.49;100.00
21960;BME280;11144;43.030;25.108;2023-01-19T07:07:59;98225.25;;;11.59;100.00
21960;BME280;11144;43.030;25.108;2023-01-19T07:09:33;98219.44;;;11.68;100.00
21960;BME280;11144;43.030;25.108;2023-01-19T07:11:07;98217.91;;;11.79;100.00
21960;BME280;11144;43.030;25.108;2023-01-19T07:13:01;98214.03;;;11.85;100.00
21960;BME280;11144;43.030;25.108;2023-01-19T07:14:35;98222.13;;;11.97;100.00
21960;BME280;11144;43.030;25.108;2023-01-19T07:16:10;98217.59;;;12.13;100.00
21960;BME280;11144;43.030;25.108;2023-01-19T07:17:44;98205.41;;;12.25;100.00
21960;BME280;11144;43.030;25.108;2023-01-19T07:19:18;98198.50;;;12.36;100.00
21960;BME280;11144;43.030;25.108;2023-01-19T07:20:51;98201.44;;;12.46;100.00
21960;BME280;11144;43.030;25.108;2023-01-19T07:22:24;98210.44;;;12.71;100.00
21960;BME280;11144;43.030;25.108;2023-01-19T07:23:59;98210.19;;;13.30;100.00
21960;BME280;11144;43.030;25.108;2023-01-19T07:25:32;98196.59;;;14.01;100.00
21960;BME280;11144;43.030;25.108;2023-01-19T07:27:05;98196.75;;;14.62;100.00
21960;BME280;11144;43.030;25.108;2023-01-19T07:28:39;98193.50;;;15.30;100.00
21960;BME280;11144;43.030;25.108;2023-01-19T07:30:13;98201.22;;;15.82;100.00
21960;BME280;11144;43.030;25.108;2023-01-19T07:31:46;98185.38;;;16.26;100.00
21960;BME280;11144;43.030;25.108;2023-01-19T07:33:22;98188.13;;;16.70;100.00
21960;BME280;11144;43.030;25.108;2023-01-19T07:34:57;98195.88;;;17.06;100.00
21960;BME280;11144;43.030;25.108;2023-01-19T07:36:29;98194.38;;;17.35;100.00
21960;BME280;11144;43.030;25.108;2023-01-19T07:38:02;98189.00;;;17.57;100.00
21960;BME280;11144;43.030;25.108;2023-01-19T07:39:37;98178.22;;;17.79;100.00
21960;BME280;11144;43.030;25.108;2023-01-19T07:41:10;98190.31;;;17.94;100.00
21960;BME280;11144;43.030;25.108;2023-01-19T07:42:47;98188.56;;;18.04;100.00
21960;BME280;11144;43.030;25.108;2023-01-19T07:44:21;98193.69;;;18.28;100.00
21960;BME280;11144;43.030;25.108;2023-01-19T07:45:55;98197.88;;;18.41;100.00
21960;BME280;11144;43.030;25.108;2023-01-19T07:47:28;98188.41;;;18.58;100.00
21960;BME280;11144;43.030;25.108;2023-01-19T07:49:02;98196.25;;;18.50;100.00
21960;BME280;11144;43.030;25.108;2023-01-19T07:50:35;98180.63;;;18.34;100.00
21960;BME280;11144;43.030;25.108;2023-01-19T07:52:09;98198.16;;;18.38;100.00
21960;BME280;11144;43.030;25.108;2023-01-19T07:53:42;98183.00;;;18.48;100.00
21960;BME280;11144;43.030;25.108;2023-01-19T07:55:17;98174.38;;;18.65;100.00
21960;BME280;11144;43.030;25.108;2023-01-19T07:56:52;98174.88;;;18.59;100.00
21960;BME280;11144;43.030;25.108;2023-01-19T07:58:25;98175.63;;;18.61;100.00
21960;BME280;11144;43.030;25.108;2023-01-19T07:59:59;98183.56;;;18.52;100.00
21960;BME280;11144;43.030;25.108;2023-01-19T08:01:43;98174.88;;;18.59;100.00
21960;BME280;11144;43.030;25.108;2023-01-19T08:03:17;98186.94;;;18.74;100.00
21960;BME280;11144;43.030;25.108;2023-01-19T08:04:50;98147.59;;;18.65;100.00
21960;BME280;11144;43.030;25.108;2023-01-19T08:06:28;98192.25;;;18.65;100.00
21960;BME280;11144;43.030;25.108;2023-01-19T08:08:04;98160.59;;;18.79;100.00
21960;BME280;11144;43.030;25.108;2023-01-19T08:09:37;98191.69;;;18.91;100.00
21960;BME280;11144;43.030;25.108;2023-01-19T08:11:11;98223.59;;;18.94;100.00
21960;BME280;11144;43.030;25.108;2023-01-19T08:12:46;98208.41;;;19.14;100.00
21960;BME280;11144;43.030;25.108;2023-01-19T08:14:19;98221.34;;;19.29;100.00